Time;durP1;ratioP1;P1;durP2;ratioP2;P2;SDS_P1;SDS_P2;PMS_P1;PMS_P2;Temp;Humidity;BMP_temperature;BMP_pressure;BME280_temperature;BME280_humidity;BME280_pressure;Samples;Min_cycle;Max_cycle;Signal;HPM_P1;HPM_P2
2021/08/18 00:02:04;;;;;;;7.90;4.68;;;11.00;99.90;;;;;;4877219;29;20045;-85
2021/08/18 00:04:32;;;;;;;9.90;3.33;;;11.00;99.90;;;;;;4844430;29;20064;-85
2021/08/18 00:07:00;;;;;;;5.85;3.50;;;11.10;99.90;;;;;;4877182;29;20053;-85
2021/08/18 00:09:28;;;;;;;6.35;4.75;;;11.10;99.90;;;;;;4845076;29;20060;-85
2021/08/18 00:11:56;;;;;;;7.28;3.42;;;11.00;99.90;;;;;;4876832;29;20368;-86
2021/08/18 00:14:23;;;;;;;7.22;4.45;;;11.00;99.90;;;;;;4859705;29;20053;-86
2021/08/18 00:16:51;;;;;;;4.80;3.70;;;11.00;99.90;;;;;;4876775;29;20052;-85
2021/08/18 00:19:19;;;;;;;5.80;3.42;;;11.00;99.90;;;;;;4888097;29;20525;-85
2021/08/18 00:21:47;;;;;;;6.97;4.55;;;11.00;99.90;;;;;;4878586;29;20053;-85
2021/08/18 00:24:14;;;;;;;7.03;3.80;;;11.00;99.90;;;;;;4877831;29;20056;-85
2021/08/18 00:26:42;;;;;;;9.07;4.82;;;11.00;99.90;;;;;;4895688;29;20056;-86
2021/08/18 00:29:11;;;;;;;6.65;4.47;;;11.10;99.90;;;;;;4895125;29;20040;-86
2021/08/18 00:31:38;;;;;;;10.27;4.40;;;11.10;99.90;;;;;;4862196;29;20060;-85
2021/08/18 00:34:06;;;;;;;11.40;4.25;;;11.10;99.90;;;;;;4863362;29;20065;-86
2021/08/18 00:36:34;;;;;;;10.30;4.95;;;11.10;99.90;;;;;;4895154;29;20041;-86
2021/08/18 00:39:02;;;;;;;8.25;3.92;;;11.10;99.90;;;;;;4895733;29;20056;-85
2021/08/18 00:41:30;;;;;;;5.55;3.97;;;11.00;99.90;;;;;;4878626;29;20040;-85
2021/08/18 00:43:58;;;;;;;8.13;3.58;;;11.00;99.90;;;;;;4895236;29;20065;-85
2021/08/18 00:46:25;;;;;;;7.82;3.92;;;11.00;99.90;;;;;;4878553;29;20055;-85
2021/08/18 00:48:53;;;;;;;8.90;4.07;;;11.00;99.90;;;;;;4844557;29;20518;-86
2021/08/18 00:51:21;;;;;;;7.97;4.53;;;11.00;99.90;;;;;;4859118;29;20103;-85
2021/08/18 00:53:50;;;;;;;9.23;4.78;;;11.10;99.90;;;;;;4862307;29;20060;-85
2021/08/18 00:56:17;;;;;;;9.20;3.80;;;11.10;99.90;;;;;;4844661;29;20140;-85
2021/08/18 00:58:45;;;;;;;6.50;3.70;;;11.10;99.90;;;;;;4861672;29;20380;-85
2021/08/18 01:01:13;;;;;;;5.82;3.63;;;11.10;99.90;;;;;;4861012;29;20046;-85
2021/08/18 01:03:41;;;;;;;7.72;5.13;;;11.10;99.90;;;;;;4860443;29;20512;-85
2021/08/18 01:06:09;;;;;;;6.78;3.63;;;11.10;99.90;;;;;;4860531;29;20045;-85
2021/08/18 01:08:37;;;;;;;5.55;4.03;;;11.10;99.90;;;;;;4829140;29;20052;-85
2021/08/18 01:11:05;;;;;;;6.45;3.97;;;11.10;99.90;;;;;;4845348;29;20053;-86
2021/08/18 01:13:33;;;;;;;10.50;5.20;;;11.10;99.90;;;;;;4844114;29;20436;-85
2021/08/18 01:16:00;;;;;;;6.90;4.18;;;11.10;99.90;;;;;;4861390;29;20050;-85
2021/08/18 01:18:30;;;;;;;7.68;5.10;;;11.10;99.90;;;;;;4872154;29;20398;-85
2021/08/18 01:20:58;;;;;;;8.82;4.78;;;11.10;99.90;;;;;;4881983;29;20825;-85
2021/08/18 01:23:26;;;;;;;6.75;4.57;;;11.10;99.90;;;;;;4898465;29;20052;-85
2021/08/18 01:25:56;;;;;;;6.75;3.97;;;11.00;99.90;;;;;;4882042;29;20053;-85
2021/08/18 01:28:28;;;;;;;11.90;4.75;;;11.10;99.90;;;;;;4881793;29;20048;-77
2021/08/18 01:30:56;;;;;;;8.35;4.80;;;11.10;99.90;;;;;;4898691;29;20060;-77
2021/08/18 01:33:24;;;;;;;10.23;4.55;;;11.10;99.90;;;;;;4885559;29;20045;-77
2021/08/18 01:35:52;;;;;;;9.52;6.32;;;11.10;99.90;;;;;;4860711;29;20514;-77
2021/08/18 01:38:21;;;;;;;7.18;4.53;;;11.00;99.90;;;;;;4860977;29;20058;-77
2021/08/18 01:40:51;;;;;;;12.48;6.13;;;11.10;99.90;;;;;;4860668;29;20054;-77
2021/08/18 01:43:21;;;;;;;16.43;6.70;;;11.10;99.90;;;;;;4860495;29;20061;-77
2021/08/18 01:45:50;;;;;;;8.98;4.60;;;11.10;99.90;;;;;;4861222;29;20306;-77
2021/08/18 01:48:29;;;;;;;9.18;5.70;;;11.10;99.90;;;;;;4864216;29;20470;-77
2021/08/18 01:50:58;;;;;;;13.80;8.18;;;11.10;99.90;;;;;;4878734;29;20049;-77
2021/08/18 01:53:31;;;;;;;14.00;6.22;;;11.10;99.90;;;;;;4862269;29;20045;-77
2021/08/18 01:56:03;;;;;;;7.50;5.43;;;11.10;99.90;;;;;;4879183;29;20049;-77
2021/08/18 01:58:34;;;;;;;15.73;6.30;;;11.10;99.90;;;;;;4879208;29;20056;-77
2021/08/18 02:01:03;;;;;;;7.45;5.60;;;11.10;99.90;;;;;;4878513;29;20503;-77
2021/08/18 02:03:31;;;;;;;11.65;7.10;;;11.00;99.90;;;;;;4878145;29;20064;-77
2021/08/18 02:05:59;;;;;;;6.63;4.88;;;11.10;99.90;;;;;;4846711;29;20075;-77
2021/08/18 02:08:27;;;;;;;13.13;5.53;;;11.00;99.90;;;;;;4878836;29;20057;-77
2021/08/18 02:10:55;;;;;;;11.57;4.63;;;11.10;99.90;;;;;;4877025;29;20380;-77
2021/08/18 02:13:23;;;;;;;11.75;6.03;;;11.00;99.90;;;;;;4859664;29;20057;-76
2021/08/18 02:15:50;;;;;;;14.65;6.10;;;11.10;99.90;;;;;;4860027;29;20061;-77
2021/08/18 02:18:18;;;;;;;10.85;5.40;;;11.10;99.90;;;;;;4866995;29;20059;-77
2021/08/18 02:20:47;;;;;;;14.70;5.80;;;11.10;99.90;;;;;;4896899;29;20044;-77
2021/08/18 02:23:15;;;;;;;7.13;5.75;;;11.10;99.90;;;;;;4897044;29;20059;-77
2021/08/18 02:25:43;;;;;;;10.27;6.10;;;11.00;99.90;;;;;;4897723;29;20057;-77
2021/08/18 02:28:10;;;;;;;12.70;7.43;;;11.00;99.90;;;;;;4897000;29;20048;-77
2021/08/18 02:30:39;;;;;;;7.47;4.53;;;11.00;99.90;;;;;;4897096;29;20479;-77
2021/08/18 02:33:08;;;;;;;10.07;6.18;;;11.00;99.90;;;;;;4897022;29;20052;-77
2021/08/18 02:35:37;;;;;;;12.95;5.75;;;11.00;99.90;;;;;;4897106;29;20055;-77
2021/08/18 02:38:06;;;;;;;12.85;7.88;;;11.00;99.90;;;;;;4897045;29;20048;-76
2021/08/18 02:40:34;;;;;;;8.35;5.55;;;11.00;99.90;;;;;;4896760;29;20059;-76
2021/08/18 02:43:02;;;;;;;10.13;5.50;;;11.00;99.90;;;;;;4880033;29;20055;-77
2021/08/18 02:45:31;;;;;;;17.35;6.70;;;11.00;99.90;;;;;;4896524;29;20053;-77
2021/08/18 02:47:59;;;;;;;16.33;8.30;;;11.00;99.90;;;;;;4881147;29;20049;-76
2021/08/18 02:50:29;;;;;;;12.95;8.60;;;11.00;99.90;;;;;;4878520;29;20057;-77
2021/08/18 02:52:58;;;;;;;14.95;7.03;;;11.00;99.90;;;;;;4877657;29;20061;-77
2021/08/18 02:55:28;;;;;;;6.07;4.55;;;11.00;99.90;;;;;;4877823;29;20049;-77
2021/08/18 02:57:57;;;;;;;9.77;5.90;;;11.10;99.90;;;;;;4878142;29;20061;-76
2021/08/18 03:00:24;;;;;;;11.25;6.28;;;11.00;99.90;;;;;;4877436;29;20403;-77
2021/08/18 03:02:53;;;;;;;11.88;6.10;;;11.00;99.90;;;;;;4878194;29;20052;-77
2021/08/18 03:05:22;;;;;;;9.02;5.70;;;11.10;99.90;;;;;;4861248;29;20057;-77
2021/08/18 03:07:49;;;;;;;8.70;5.43;;;11.10;99.90;;;;;;4860639;29;20063;-76
2021/08/18 03:10:17;;;;;;;7.80;5.00;;;11.10;99.90;;;;;;4861114;29;20064;-77
2021/08/18 03:12:45;;;;;;;9.60;6.50;;;11.10;99.90;;;;;;4860955;29;20053;-76
2021/08/18 03:15:13;;;;;;;11.57;5.95;;;11.10;99.90;;;;;;4845308;29;20064;-77
2021/08/18 03:17:41;;;;;;;12.18;5.07;;;11.10;99.90;;;;;;4878181;29;20045;-76
2021/08/18 03:20:09;;;;;;;15.07;5.88;;;11.10;99.90;;;;;;4894574;29;20068;-77
2021/08/18 03:22:37;;;;;;;11.18;6.00;;;11.10;99.90;;;;;;4895978;29;20049;-77
2021/08/18 03:25:06;;;;;;;11.85;6.28;;;11.10;99.90;;;;;;4895438;29;20063;-77
2021/08/18 03:27:35;;;;;;;11.52;5.30;;;11.20;99.90;;;;;;4895867;29;20067;-77
2021/08/18 03:30:05;;;;;;;14.30;5.47;;;11.20;99.90;;;;;;4896196;29;20068;-77
2021/08/18 03:32:32;;;;;;;6.88;3.92;;;11.20;99.90;;;;;;4879318;29;20053;-77
2021/08/18 03:35:00;;;;;;;13.45;6.47;;;11.20;99.90;;;;;;4859060;29;20057;-76
2021/08/18 03:37:29;;;;;;;10.88;6.22;;;11.20;99.90;;;;;;4841559;29;20381;-77
2021/08/18 03:39:57;;;;;;;11.30;5.28;;;11.20;99.90;;;;;;4858632;29;20069;-77
2021/08/18 03:42:24;;;;;;;10.00;4.60;;;11.20;99.90;;;;;;4859225;29;20045;-77
2021/08/18 03:44:52;;;;;;;8.82;6.43;;;11.20;99.90;;;;;;4858591;29;20057;-77
2021/08/18 03:47:20;;;;;;;11.70;4.63;;;11.20;99.90;;;;;;4858472;29;20052;-77
2021/08/18 03:49:48;;;;;;;8.57;4.30;;;11.20;99.90;;;;;;4873763;29;20059;-77
2021/08/18 03:52:15;;;;;;;10.00;5.30;;;11.20;99.90;;;;;;4876517;29;20052;-77
2021/08/18 03:54:43;;;;;;;8.68;4.18;;;11.20;99.90;;;;;;4877624;29;20045;-76
2021/08/18 03:57:11;;;;;;;11.10;6.45;;;11.30;99.90;;;;;;4877142;29;20068;-77
2021/08/18 03:59:38;;;;;;;7.82;4.18;;;11.30;99.90;;;;;;4860477;29;20388;-77
2021/08/18 04:02:06;;;;;;;11.70;5.80;;;11.30;99.90;;;;;;4876813;29;20052;-77
2021/08/18 04:04:34;;;;;;;14.85;4.90;;;11.30;99.90;;;;;;4877119;29;20057;-77
2021/08/18 04:07:01;;;;;;;13.50;6.82;;;11.30;99.90;;;;;;4877362;29;20073;-77
2021/08/18 04:09:29;;;;;;;13.82;6.88;;;11.40;99.90;;;;;;4876925;29;20049;-77
2021/08/18 04:11:57;;;;;;;9.52;5.97;;;11.40;99.90;;;;;;4866771;29;20041;-77
2021/08/18 04:14:24;;;;;;;11.07;5.35;;;11.40;99.90;;;;;;4858332;29;20529;-77
2021/08/18 04:16:52;;;;;;;14.40;5.70;;;11.30;99.90;;;;;;4857899;29;20046;-77
2021/08/18 04:19:20;;;;;;;7.43;4.25;;;11.40;99.90;;;;;;4880417;29;20055;-77
2021/08/18 04:21:48;;;;;;;6.65;4.30;;;11.40;99.90;;;;;;4895194;29;20492;-77
2021/08/18 04:24:15;;;;;;;9.55;4.70;;;11.40;99.90;;;;;;4895438;29;20041;-77
2021/08/18 04:26:43;;;;;;;12.20;5.38;;;11.40;99.90;;;;;;4895366;29;20059;-77
2021/08/18 04:29:12;;;;;;;10.38;4.95;;;11.50;99.90;;;;;;4894826;29;20048;-77
2021/08/18 04:31:39;;;;;;;13.27;5.60;;;11.50;99.90;;;;;;4862500;29;20398;-77
2021/08/18 04:34:07;;;;;;;8.40;4.30;;;11.50;99.90;;;;;;4895908;29;20059;-77
2021/08/18 04:36:35;;;;;;;7.53;4.57;;;11.50;99.90;;;;;;4878412;29;20060;-77
2021/08/18 04:39:03;;;;;;;10.10;5.68;;;11.50;99.90;;;;;;4895668;29;20048;-76
2021/08/18 04:41:30;;;;;;;11.02;4.45;;;11.50;99.90;;;;;;4894739;29;20055;-77
2021/08/18 04:43:58;;;;;;;10.55;4.93;;;11.50;99.90;;;;;;4894549;29;20045;-77
2021/08/18 04:46:27;;;;;;;8.02;4.07;;;11.50;99.90;;;;;;4895538;29;20478;-77
2021/08/18 04:48:55;;;;;;;13.18;5.05;;;11.50;99.90;;;;;;4872251;29;20053;-77
2021/08/18 04:51:23;;;;;;;7.90;5.00;;;11.60;99.90;;;;;;4875691;29;20049;-77
2021/08/18 04:53:50;;;;;;;15.57;6.25;;;11.60;99.90;;;;;;4860500;29;20048;-77
2021/08/18 04:56:18;;;;;;;11.80;5.55;;;11.50;99.90;;;;;;4875975;29;20404;-76
2021/08/18 04:58:48;;;;;;;12.48;5.30;;;11.60;99.90;;;;;;4876421;29;20064;-77
2021/08/18 05:01:16;;;;;;;9.32;4.30;;;11.60;99.90;;;;;;4875936;29;20053;-76
2021/08/18 05:03:44;;;;;;;7.43;3.83;;;11.60;99.90;;;;;;4876443;29;20522;-76
2021/08/18 05:06:12;;;;;;;7.57;5.05;;;11.60;99.90;;;;;;4876682;29;20100;-77
2021/08/18 05:08:40;;;;;;;12.63;7.55;;;11.70;99.90;;;;;;4876528;29;20049;-77
2021/08/18 05:11:07;;;;;;;11.32;5.35;;;11.70;99.90;;;;;;4876276;29;20056;-77
2021/08/18 05:13:35;;;;;;;6.47;4.20;;;11.70;99.90;;;;;;4876606;29;20053;-78
2021/08/18 05:16:03;;;;;;;11.05;6.78;;;11.70;99.90;;;;;;4876100;29;20510;-78
2021/08/18 05:18:31;;;;;;;11.75;4.97;;;11.70;99.90;;;;;;4881320;29;20064;-76
2021/08/18 05:20:59;;;;;;;10.68;5.75;;;11.70;99.90;;;;;;4894502;29;20044;-78
2021/08/18 05:23:26;;;;;;;11.88;7.30;;;11.80;99.90;;;;;;4894405;29;20041;-77
2021/08/18 05:25:54;;;;;;;11.68;6.05;;;11.80;99.90;;;;;;4895471;29;20474;-77
2021/08/18 05:28:22;;;;;;;9.00;5.78;;;11.80;99.90;;;;;;4894567;29;20509;-78
2021/08/18 05:30:49;;;;;;;9.32;5.60;;;11.80;99.90;;;;;;4895066;29;20060;-78
2021/08/18 05:33:17;;;;;;;12.07;6.18;;;11.80;99.90;;;;;;4883728;29;20065;-78
2021/08/18 05:35:45;;;;;;;11.10;7.43;;;11.90;99.90;;;;;;4857478;29;20053;-77
2021/08/18 05:38:13;;;;;;;12.45;7.28;;;11.80;99.90;;;;;;4858740;29;20472;-78
2021/08/18 05:40:40;;;;;;;9.80;6.18;;;11.90;99.90;;;;;;4860769;29;20056;-77
2021/08/18 05:43:11;;;;;;;11.20;5.63;;;11.90;99.90;;;;;;4860486;29;20041;-78
2021/08/18 05:45:39;;;;;;;24.00;8.18;;;11.90;99.90;;;;;;4861288;29;20395;-78
2021/08/18 05:48:07;;;;;;;7.28;4.97;;;11.90;99.90;;;;;;4862716;29;20050;-78
2021/08/18 05:50:35;;;;;;;8.43;5.28;;;11.90;99.90;;;;;;4879088;29;20053;-77
2021/08/18 05:53:02;;;;;;;11.15;4.80;;;11.90;99.90;;;;;;4862164;29;20060;-77
2021/08/18 05:55:30;;;;;;;15.68;6.95;;;12.00;99.90;;;;;;4879285;29;20084;-77
2021/08/18 05:57:57;;;;;;;16.98;7.63;;;12.00;99.90;;;;;;4879554;29;20056;-77
2021/08/18 06:00:25;;;;;;;13.15;8.38;;;12.10;99.90;;;;;;4879056;29;20391;-77
2021/08/18 06:02:53;;;;;;;12.38;7.45;;;12.10;99.90;;;;;;4879640;29;20060;-77
2021/08/18 06:05:21;;;;;;;11.05;6.07;;;12.20;99.90;;;;;;4878971;29;20065;-77
2021/08/18 06:07:49;;;;;;;16.27;7.55;;;12.20;99.90;;;;;;4878619;29;20049;-77
2021/08/18 06:10:17;;;;;;;11.80;7.25;;;12.20;99.90;;;;;;4879399;29;20057;-77
2021/08/18 06:12:44;;;;;;;11.07;5.82;;;12.30;99.90;;;;;;4862449;29;20057;-77
2021/08/18 06:15:12;;;;;;;15.75;8.00;;;12.30;99.90;;;;;;4860416;29;20499;-77
2021/08/18 06:17:40;;;;;;;12.32;8.43;;;12.40;99.90;;;;;;4860244;29;20403;-77
2021/08/18 06:20:08;;;;;;;12.75;7.68;;;12.40;99.90;;;;;;4894599;29;20067;-78
2021/08/18 06:22:36;;;;;;;10.90;7.22;;;12.40;99.90;;;;;;4897376;29;20090;-77
2021/08/18 06:25:05;;;;;;;14.10;7.60;;;12.50;99.90;;;;;;4897339;29;20064;-77
2021/08/18 06:27:33;;;;;;;15.77;7.45;;;12.50;99.90;;;;;;4897095;29;20055;-78
2021/08/18 06:30:00;;;;;;;15.10;6.90;;;12.60;99.90;;;;;;4897202;29;20045;-78
2021/08/18 06:32:28;;;;;;;16.42;6.57;;;12.60;99.90;;;;;;4897232;29;20053;-77
2021/08/18 06:34:56;;;;;;;14.23;6.63;;;12.70;99.90;;;;;;4897833;29;20063;-77
2021/08/18 06:37:40;;;;;;;15.93;8.00;;;12.70;99.90;;;;;;4894460;29;20134;-89
2021/08/18 06:40:09;;;;;;;15.05;9.55;;;12.80;99.90;;;;;;4865300;29;20413;-86
2021/08/18 06:42:44;;;;;;;10.13;6.60;;;12.80;99.90;;;;;;4897235;29;20064;-85
2021/08/18 06:45:13;;;;;;;17.73;7.82;;;12.90;99.90;;;;;;4880026;29;20084;-87
2021/08/18 06:47:41;;;;;;;11.73;7.55;;;13.00;99.90;;;;;;4874408;29;20294;-86
2021/08/18 06:50:09;;;;;;;16.02;7.30;;;13.00;99.90;;;;;;4864079;29;20059;-85
2021/08/18 06:52:37;;;;;;;8.30;5.80;;;13.10;99.90;;;;;;4896477;29;20041;-86
2021/08/18 06:55:07;;;;;;;15.63;6.63;;;13.20;99.90;;;;;;4896794;29;20467;-85
2021/08/18 06:57:34;;;;;;;11.13;6.97;;;13.30;99.90;;;;;;4897108;29;20051;-87
2021/08/18 07:00:04;;;;;;;12.05;7.20;;;13.30;99.90;;;;;;4864271;29;20049;-86
2021/08/18 07:02:32;;;;;;;20.33;8.25;;;13.40;99.90;;;;;;4896995;29;20049;-85
2021/08/18 07:05:05;;;;;;;15.82;7.30;;;13.50;99.90;;;;;;4896844;29;20052;-87
2021/08/18 07:07:32;;;;;;;18.35;8.38;;;13.50;99.90;;;;;;4879619;29;20055;-86
2021/08/18 07:10:00;;;;;;;14.55;7.80;;;13.40;99.90;;;;;;4897183;29;20049;-87
2021/08/18 07:12:27;;;;;;;18.30;9.70;;;13.40;99.90;;;;;;4879737;29;20510;-85
2021/08/18 07:14:55;;;;;;;16.80;10.13;;;13.50;99.90;;;;;;4879388;29;20079;-86
2021/08/18 07:17:23;;;;;;;17.52;8.32;;;13.50;99.90;;;;;;4896353;29;20491;-87
2021/08/18 07:19:50;;;;;;;14.15;7.68;;;13.60;99.90;;;;;;4880085;29;20045;-86
2021/08/18 07:22:18;;;;;;;19.33;8.30;;;13.60;99.90;;;;;;4877352;29;20049;-85
2021/08/18 07:24:55;;;;;;;14.27;7.95;;;13.70;99.90;;;;;;4881374;29;20044;-88
2021/08/18 07:27:38;;;;;;;14.02;8.52;;;13.70;99.90;;;;;;4884364;29;20052;-85
2021/08/18 07:30:07;;;;;;;15.10;7.43;;;14.00;99.90;;;;;;4895976;29;20049;-85
2021/08/18 07:32:37;;;;;;;12.52;7.47;;;14.10;99.90;;;;;;4878512;29;20060;-85
2021/08/18 07:35:06;;;;;;;12.95;6.25;;;14.20;99.90;;;;;;4893749;29;20055;-86
2021/08/18 07:37:34;;;;;;;13.35;6.03;;;14.50;99.90;;;;;;4895351;29;20052;-89
2021/08/18 07:40:02;;;;;;;17.23;6.88;;;14.50;99.90;;;;;;4863454;29;20052;-87
2021/08/18 07:42:31;;;;;;;15.85;10.35;;;14.60;99.90;;;;;;4864118;29;20402;-87
2021/08/18 07:44:58;;;;;;;17.63;9.77;;;14.70;99.90;;;;;;4878158;29;20830;-87
2021/08/18 07:47:26;;;;;;;18.58;9.52;;;14.90;99.90;;;;;;4895823;29;20052;-85
2021/08/18 07:49:54;;;;;;;13.45;7.55;;;15.00;99.90;;;;;;4863410;29;20045;-87
2021/08/18 07:52:22;;;;;;;14.23;8.38;;;15.00;99.90;;;;;;4856274;29;20563;-87
2021/08/18 07:54:50;;;;;;;13.30;6.32;;;15.00;99.90;;;;;;4860354;29;20064;-88
2021/08/18 07:57:18;;;;;;;17.75;10.43;;;15.10;99.90;;;;;;4842039;29;20049;-87
2021/08/18 07:59:46;;;;;;;15.60;7.85;;;15.10;99.90;;;;;;4841113;29;20499;-88
2021/08/18 08:02:18;;;;;;;17.27;9.93;;;15.00;99.90;;;;;;4858114;29;20057;-88
2021/08/18 08:04:47;;;;;;;16.63;8.20;;;15.00;99.90;;;;;;4871159;29;20060;-89
2021/08/18 08:07:16;;;;;;;13.82;8.77;;;15.10;99.90;;;;;;4854907;29;20052;-87
2021/08/18 08:09:44;;;;;;;21.25;9.32;;;15.20;99.90;;;;;;4863431;29;20507;-88
2021/08/18 08:12:12;;;;;;;17.88;9.77;;;15.20;99.90;;;;;;4883091;29;20064;-88
2021/08/18 08:14:39;;;;;;;16.70;8.95;;;15.30;99.90;;;;;;4860239;29;20057;-88
2021/08/18 08:17:08;;;;;;;16.13;7.45;;;15.30;99.90;;;;;;4876400;29;20056;-86
2021/08/18 08:19:36;;;;;;;13.48;8.40;;;15.20;99.90;;;;;;4867775;29;20041;-89
2021/08/18 08:22:04;;;;;;;13.98;7.53;;;15.10;99.90;;;;;;4877152;29;20075;-87
2021/08/18 08:24:32;;;;;;;14.25;8.20;;;15.10;99.90;;;;;;4863572;29;20049;-86
2021/08/18 08:26:59;;;;;;;15.35;7.93;;;15.00;99.90;;;;;;4860421;29;20057;-88
2021/08/18 08:29:27;;;;;;;13.52;8.45;;;15.00;99.90;;;;;;4859427;29;20049;-89
2021/08/18 08:31:55;;;;;;;17.95;8.52;;;15.00;99.90;;;;;;4876068;29;20045;-89
2021/08/18 08:34:23;;;;;;;15.07;8.35;;;15.00;99.90;;;;;;4877006;29;20060;-87
2021/08/18 08:36:51;;;;;;;11.77;6.40;;;14.90;99.90;;;;;;4859209;29;20049;-88
2021/08/18 08:39:18;;;;;;;11.82;6.95;;;14.90;99.90;;;;;;4859495;29;20060;-90
2021/08/18 08:41:48;;;;;;;15.52;8.07;;;15.00;99.90;;;;;;4859625;29;20057;-89
2021/08/18 08:44:21;;;;;;;18.70;9.13;;;15.00;99.90;;;;;;4859626;29;20566;-87
2021/08/18 08:46:50;;;;;;;12.63;8.38;;;15.10;99.90;;;;;;4860585;29;20056;-87
2021/08/18 08:49:21;;;;;;;10.60;7.38;;;15.20;99.90;;;;;;4887782;29;20056;-85
2021/08/18 08:51:52;;;;;;;18.35;9.18;;;15.30;99.90;;;;;;4894518;29;20126;-87
2021/08/18 08:54:21;;;;;;;13.68;7.50;;;15.30;99.90;;;;;;4895597;29;20049;-88
2021/08/18 08:56:49;;;;;;;18.52;8.15;;;15.20;99.90;;;;;;4894864;29;20486;-89
2021/08/18 08:59:16;;;;;;;15.90;9.10;;;15.10;99.90;;;;;;4894933;29;20049;-86
2021/08/18 09:02:06;;;;;;;12.73;7.05;;;15.10;99.90;;;;;;4863061;29;20510;-87
2021/08/18 09:04:46;;;;;;;13.65;7.55;;;15.20;99.90;;;;;;4862062;29;20685;-90
2021/08/18 09:07:22;;;;;;;15.48;9.35;;;15.40;99.90;;;;;;4875787;29;20052;-87
2021/08/18 09:10:00;;;;;;;15.68;9.65;;;15.50;99.90;;;;;;4847438;29;20053;-88
2021/08/18 09:12:35;;;;;;;16.23;10.00;;;15.40;99.90;;;;;;4860553;29;20045;-86
2021/08/18 09:15:15;;;;;;;14.30;7.72;;;15.30;99.90;;;;;;4864827;29;20057;-88
2021/08/18 09:17:44;;;;;;;12.10;8.73;;;15.30;99.90;;;;;;4865616;29;20053;-89
2021/08/18 09:20:14;;;;;;;16.98;6.43;;;15.40;99.90;;;;;;4881433;29;20049;-87
2021/08/18 09:22:54;;;;;;;10.02;7.88;;;15.50;99.90;;;;;;4898580;29;20550;-89
2021/08/18 09:25:27;;;;;;;11.75;6.78;;;15.50;99.90;;;;;;4898265;29;20490;-88
2021/08/18 09:28:00;;;;;;;12.30;7.00;;;15.50;99.90;;;;;;4881180;29;20055;-88
2021/08/18 09:30:44;;;;;;;14.52;6.80;;;15.50;99.90;;;;;;4878299;29;20416;-87
2021/08/18 09:33:22;;;;;;;13.82;8.07;;;15.40;99.90;;;;;;4882247;29;20136;-88
2021/08/18 09:36:24;;;;;;;9.68;6.18;;;15.30;99.90;;;;;;4879139;29;20522;-88
2021/08/18 09:39:28;;;;;;;9.30;7.05;;;15.20;99.90;;;;;;4864888;29;20063;-86
2021/08/18 09:42:26;;;;;;;13.43;7.55;;;15.30;99.90;;;;;;4898029;29;20720;-87
2021/08/18 09:45:26;;;;;;;12.77;6.75;;;15.50;99.90;;;;;;4880876;29;20612;-84
2021/08/18 09:47:57;;;;;;;13.27;6.97;;;15.50;99.90;;;;;;4880293;29;20048;-83
2021/08/18 09:50:28;;;;;;;12.80;7.28;;;15.70;99.90;;;;;;4862280;29;20053;-83
2021/08/18 09:53:20;;;;;;;11.68;6.20;;;15.90;99.90;;;;;;4846777;29;20535;-83
2021/08/18 09:55:56;;;;;;;12.90;6.05;;;16.20;99.90;;;;;;4827657;29;20050;-84
2021/08/18 09:58:27;;;;;;;12.43;6.65;;;16.20;99.90;;;;;;4860695;29;20053;-84
2021/08/18 10:00:58;;;;;;;15.20;8.10;;;16.10;99.90;;;;;;4864633;29;20040;-82
2021/08/18 10:03:31;;;;;;;12.13;6.45;;;16.10;99.90;;;;;;4881467;29;20048;-86
2021/08/18 10:05:59;;;;;;;12.68;7.75;;;16.20;99.90;;;;;;4897864;29;20049;-83
2021/08/18 10:08:28;;;;;;;11.48;6.38;;;16.10;99.90;;;;;;4897463;29;20053;-83
2021/08/18 10:10:57;;;;;;;16.75;6.80;;;16.00;99.90;;;;;;4895198;29;20044;-85
2021/08/18 10:13:25;;;;;;;11.45;4.47;;;16.00;99.90;;;;;;4846072;29;20037;-82
2021/08/18 10:15:54;;;;;;;11.88;5.30;;;16.00;99.90;;;;;;4845707;29;20049;-81
2021/08/18 10:18:36;;;;;;;10.52;5.65;;;15.90;99.90;;;;;;4854323;29;20064;-83
2021/08/18 10:21:06;;;;;;;10.45;6.45;;;16.00;99.90;;;;;;4864060;29;20044;-81
2021/08/18 10:23:57;;;;;;;7.75;5.78;;;15.90;99.90;;;;;;4864431;29;20041;-81
2021/08/18 10:26:35;;;;;;;9.77;6.53;;;15.90;99.90;;;;;;4897690;29;20048;-82
2021/08/18 10:29:16;;;;;;;9.95;6.15;;;15.70;99.90;;;;;;4879379;29;20053;-83
2021/08/18 10:31:46;;;;;;;11.07;7.22;;;15.70;99.90;;;;;;4896452;29;20043;-85
2021/08/18 10:34:22;;;;;;;12.27;6.13;;;15.60;99.90;;;;;;4865994;29;20406;-81
2021/08/18 10:36:57;;;;;;;9.80;5.22;;;15.70;99.90;;;;;;4896305;29;20052;-81
2021/08/18 10:39:34;;;;;;;10.57;5.65;;;15.70;99.90;;;;;;4864230;29;20044;-81
2021/08/18 10:42:06;;;;;;;10.73;7.28;;;15.60;99.90;;;;;;4896633;29;20517;-84
2021/08/18 10:45:26;;;;;;;9.00;5.00;;;15.60;99.90;;;;;;4879773;29;20051;-82
2021/08/18 10:47:59;;;;;;;13.10;5.95;;;15.80;99.90;;;;;;4866857;29;20064;-82
2021/08/18 10:50:40;;;;;;;8.93;4.78;;;16.00;99.90;;;;;;4880128;29;20044;-81
2021/08/18 10:53:28;;;;;;;;;;;16.10;99.90;;;;;;4880078;29;20041;-81
2021/08/18 10:55:56;;;;;;;11.40;5.40;;;16.30;99.90;;;;;;4896597;29;19934;-82
2021/08/18 10:58:31;;;;;;;11.52;5.45;;;16.40;99.90;;;;;;4880181;29;20052;-80
2021/08/18 11:00:58;;;;;;;9.82;5.18;;;16.50;99.90;;;;;;4878860;29;20052;-82
2021/08/18 11:03:30;;;;;;;10.07;4.60;;;16.50;99.90;;;;;;4863174;29;20750;-83
2021/08/18 11:06:01;;;;;;;9.05;5.57;;;16.60;99.90;;;;;;4879096;29;20060;-82
2021/08/18 11:08:39;;;;;;;;;;;16.60;99.90;;;;;;4879126;29;20524;-82
2021/08/18 11:11:12;;;;;;;9.55;4.80;;;16.70;99.90;;;;;;4863883;29;19934;-86
2021/08/18 11:13:52;;;;;;;;;;;16.50;99.90;;;;;;4838142;29;20053;-84
2021/08/18 11:17:06;;;;;;;15.55;6.70;;;16.40;99.90;;;;;;4868639;29;19923;-86
2021/08/18 11:19:49;;;;;;;8.52;5.43;;;16.40;99.90;;;;;;4853057;29;20047;-82
2021/08/18 11:22:27;;;;;;;9.48;6.53;;;16.40;99.90;;;;;;4863612;29;20060;-82
2021/08/18 11:25:04;;;;;;;10.60;5.38;;;16.50;99.90;;;;;;4879230;29;20534;-83
2021/08/18 11:28:34;;;;;;;;;;;;;;;;;;;;;
2021/08/18 11:32:01;;;;;;;10.50;5.70;;;16.30;99.90;;;;;;4787206;29;20517;-83
2021/08/18 11:35:02;;;;;;;10.70;5.38;;;16.30;99.90;;;;;;4801217;29;20067;-83
2021/08/18 11:37:30;;;;;;;8.93;5.10;;;16.30;99.90;;;;;;4786058;29;20051;-82
2021/08/18 11:40:02;;;;;;;11.52;5.38;;;16.30;99.90;;;;;;4784542;29;20051;-82
2021/08/18 12:03:03;;;;;;;13.20;7.00;;;16.70;99.90;;;;;;4762301;30;20054;-83
2021/08/18 12:07:28;;;;;;;13.07;6.20;;;17.00;99.90;;;;;;4699150;30;20052;-82
2021/08/18 12:10:55;;;;;;;8.50;5.63;;;16.90;99.90;;;;;;4731278;29;20056;-83
2021/08/18 12:14:35;;;;;;;9.15;5.45;;;17.00;99.90;;;;;;4787961;29;20042;-83
2021/08/18 12:17:35;;;;;;;8.90;6.63;;;17.00;99.90;;;;;;4792057;29;20054;-83
2021/08/18 12:20:52;;;;;;;9.88;4.68;;;17.20;99.90;;;;;;4774163;29;20058;-83
2021/08/18 12:24:13;;;;;;;9.38;6.07;;;17.40;99.90;;;;;;4773577;29;20510;-82
2021/08/18 12:27:03;;;;;;;12.98;6.65;;;17.40;99.90;;;;;;4819430;29;20066;-83
2021/08/18 12:30:31;;;;;;;11.18;6.07;;;17.50;99.90;;;;;;4789595;29;20526;-83
2021/08/18 12:33:19;;;;;;;7.75;5.35;;;17.40;99.90;;;;;;4827155;29;20053;-86
2021/08/18 12:36:13;;;;;;;8.52;5.90;;;17.40;99.90;;;;;;4841296;29;20447;-85
2021/08/18 12:39:00;;;;;;;8.63;5.60;;;17.20;99.90;;;;;;4865631;29;20060;-85
2021/08/18 12:41:37;;;;;;;8.05;5.82;;;17.10;99.90;;;;;;4846527;29;20048;-87
2021/08/18 12:44:14;;;;;;;;;;;17.10;99.90;;;;;;4870581;29;20064;-85
2021/08/18 12:47:20;;;;;;;7.43;4.25;;;17.10;99.90;;;;;;4875199;29;19928;-84
2021/08/18 12:50:25;;;;;;;12.52;7.75;;;17.10;99.90;;;;;;4865230;29;20406;-86
2021/08/18 12:53:40;;;;;;;9.30;5.13;;;17.50;99.90;;;;;;4862748;29;20977;-83
2021/08/18 12:57:29;;;;;;;7.28;5.22;;;17.80;99.90;;;;;;4882827;29;20495;-83
2021/08/18 13:00:03;;;;;;;9.00;4.57;;;17.80;99.90;;;;;;4886371;29;20048;-84
2021/08/18 13:02:31;;;;;;;8.98;5.88;;;17.70;99.90;;;;;;4871384;29;20406;-88
2021/08/18 13:04:59;;;;;;;5.50;4.18;;;17.60;99.90;;;;;;4902210;29;20041;-88
2021/08/18 13:07:27;;;;;;;7.13;4.30;;;17.60;99.90;;;;;;4871830;29;20044;-85
2021/08/18 13:09:55;;;;;;;14.10;4.85;;;17.70;99.90;;;;;;4873756;29;20040;-84
2021/08/18 13:12:23;;;;;;;11.88;5.22;;;17.60;99.90;;;;;;4892486;29;20045;-83
2021/08/18 13:14:51;;;;;;;10.70;5.40;;;17.80;99.90;;;;;;4902948;29;20044;-83
2021/08/18 13:17:19;;;;;;;7.55;4.93;;;18.10;99.90;;;;;;4888010;29;20044;-83
2021/08/18 13:19:47;;;;;;;9.20;4.00;;;18.40;99.90;;;;;;4890675;29;20049;-83
2021/08/18 13:22:14;;;;;;;8.85;4.80;;;18.30;99.90;;;;;;4886734;29;20059;-82
2021/08/18 13:24:42;;;;;;;9.32;4.72;;;18.50;99.90;;;;;;4885037;29;20434;-83
2021/08/18 13:27:11;;;;;;;4.80;3.47;;;18.80;99.90;;;;;;4892273;29;20052;-83
2021/08/18 13:29:39;;;;;;;7.22;5.63;;;18.90;99.90;;;;;;4901907;29;20073;-82
2021/08/18 13:32:08;;;;;;;4.97;3.95;;;19.20;99.90;;;;;;4889598;29;20502;-84
2021/08/18 13:34:35;;;;;;;4.15;3.72;;;18.80;99.90;;;;;;4899057;29;20053;-82